Time;durP1;ratioP1;P1;durP2;ratioP2;P2;SDS_P1;SDS_P2;PMS_P1;PMS_P2;Temp;Humidity;BMP_temperature;BMP_pressure;BME280_temperature;BME280_humidity;BME280_pressure;Samples;Min_cycle;Max_cycle;Signal;HPM_P1;HPM_P2
2020/12/14 00:02:17;;;;;;;7.43;3.80;;;8.10;93.10;;;;;;5045503;28;20036;-75
2020/12/14 00:04:43;;;;;;;8.80;3.97;;;8.10;93.20;;;;;;5046092;28;20044;-75
2020/12/14 00:07:09;;;;;;;8.85;4.03;;;8.10;93.20;;;;;;5044529;28;20119;-80
2020/12/14 00:09:35;;;;;;;8.30;4.35;;;8.10;93.30;;;;;;5047029;28;20063;-75
2020/12/14 00:12:02;;;;;;;9.38;4.03;;;8.10;93.40;;;;;;5045173;28;20116;-76
2020/12/14 00:14:28;;;;;;;6.97;3.38;;;8.10;93.40;;;;;;5046309;28;20689;-75
2020/12/14 00:16:54;;;;;;;9.18;4.20;;;8.10;93.30;;;;;;5042988;28;20110;-75
2020/12/14 00:19:20;;;;;;;9.95;3.90;;;8.20;93.30;;;;;;5042288;28;20131;-75
2020/12/14 00:21:46;;;;;;;7.63;4.00;;;8.20;93.30;;;;;;5046075;28;20041;-76
2020/12/14 00:24:12;;;;;;;12.48;4.53;;;8.20;93.30;;;;;;5043665;28;20032;-75
2020/12/14 00:26:37;;;;;;;8.63;4.00;;;8.10;93.30;;;;;;5044815;28;20044;-77
2020/12/14 00:29:04;;;;;;;11.35;4.40;;;8.20;93.30;;;;;;5043713;28;20072;-76
2020/12/14 00:31:29;;;;;;;10.27;4.38;;;8.20;93.30;;;;;;5043879;28;20040;-80
2020/12/14 00:33:55;;;;;;;9.55;4.22;;;8.20;93.20;;;;;;5058122;28;20033;-76
2020/12/14 00:36:21;;;;;;;9.40;3.97;;;8.20;93.20;;;;;;5044675;28;20052;-78
2020/12/14 00:38:46;;;;;;;9.13;4.20;;;8.20;93.30;;;;;;5045001;28;20045;-76
2020/12/14 00:41:19;;;;;;;7.93;3.20;;;8.20;93.30;;;;;;5043715;28;20447;-79
2020/12/14 00:43:46;;;;;;;9.43;4.00;;;8.20;93.40;;;;;;5045150;28;20040;-75
2020/12/14 00:46:13;;;;;;;10.35;4.18;;;8.20;93.30;;;;;;5043452;28;20498;-79
2020/12/14 00:48:39;;;;;;;9.10;4.20;;;8.30;93.40;;;;;;5050418;28;20163;-74
2020/12/14 00:51:05;;;;;;;7.53;3.67;;;8.30;93.40;;;;;;5043062;28;20138;-77
2020/12/14 00:53:32;;;;;;;9.80;4.30;;;8.30;93.50;;;;;;5044189;28;20134;-74
2020/12/14 00:56:03;;;;;;;8.50;4.07;;;8.30;93.60;;;;;;5043443;28;20040;-75
2020/12/14 00:58:29;;;;;;;10.20;4.55;;;8.30;93.60;;;;;;5043351;28;20487;-75
2020/12/14 01:00:55;;;;;;;10.65;4.50;;;8.40;93.50;;;;;;5054041;28;20017;-74
2020/12/14 01:03:21;;;;;;;12.10;4.85;;;8.40;93.50;;;;;;5044903;28;20044;-75
2020/12/14 01:05:47;;;;;;;10.45;4.70;;;8.40;93.40;;;;;;5043989;28;20032;-75
2020/12/14 01:08:12;;;;;;;8.70;4.85;;;8.40;93.40;;;;;;5041115;28;20116;-80
2020/12/14 01:10:38;;;;;;;9.43;4.35;;;8.40;93.30;;;;;;5067707;28;20042;-75
2020/12/14 01:13:04;;;;;;;7.18;4.70;;;8.50;93.30;;;;;;5048133;28;20033;-75
2020/12/14 01:15:29;;;;;;;9.48;6.03;;;8.50;93.20;;;;;;5041607;28;20033;-75
2020/12/14 01:17:55;;;;;;;9.05;5.28;;;8.50;93.20;;;;;;5050781;28;20057;-74
2020/12/14 01:20:20;;;;;;;12.88;5.63;;;8.60;93.10;;;;;;5064086;28;20545;-75
2020/12/14 01:22:46;;;;;;;8.32;4.97;;;8.60;93.10;;;;;;5047746;28;20029;-78
2020/12/14 01:25:12;;;;;;;11.32;5.38;;;8.60;92.90;;;;;;5049835;28;20115;-75
2020/12/14 01:27:38;;;;;;;8.82;5.35;;;8.60;92.90;;;;;;5051303;28;20041;-75
2020/12/14 01:30:04;;;;;;;13.05;5.78;;;8.70;92.90;;;;;;5050896;28;20396;-75
2020/12/14 01:32:29;;;;;;;11.55;5.20;;;8.70;92.90;;;;;;5047275;28;20040;-75
2020/12/14 01:34:55;;;;;;;9.68;5.05;;;8.70;92.90;;;;;;5049605;28;20385;-76
2020/12/14 01:37:21;;;;;;;12.32;5.88;;;8.70;92.90;;;;;;5062003;28;20072;-75
2020/12/14 01:39:46;;;;;;;8.45;5.15;;;8.80;92.80;;;;;;5048615;28;20029;-75
2020/12/14 01:42:12;;;;;;;8.05;5.43;;;8.80;92.80;;;;;;5051514;28;20400;-79
2020/12/14 01:44:38;;;;;;;9.07;5.30;;;8.80;92.80;;;;;;5050925;28;20037;-75
2020/12/14 01:47:03;;;;;;;9.55;5.32;;;8.80;92.70;;;;;;5067262;28;20020;-75
2020/12/14 01:49:30;;;;;;;10.07;4.75;;;8.80;92.70;;;;;;5068819;28;20395;-76
2020/12/14 01:51:56;;;;;;;11.35;5.25;;;8.80;92.70;;;;;;5046641;28;20041;-75
2020/12/14 01:54:34;;;;;;;11.60;5.43;;;8.80;92.70;;;;;;5064019;28;20027;-76
2020/12/14 01:57:01;;;;;;;8.23;5.22;;;8.90;92.70;;;;;;5067693;28;20033;-75
2020/12/14 01:59:27;;;;;;;12.35;5.75;;;8.90;92.60;;;;;;5051270;28;20024;-75
2020/12/14 02:01:52;;;;;;;12.48;5.40;;;9.00;92.50;;;;;;5063914;28;20082;-75
2020/12/14 02:04:18;;;;;;;8.93;5.40;;;9.00;92.50;;;;;;5055710;28;20040;-75
2020/12/14 02:06:44;;;;;;;12.98;5.82;;;9.00;92.60;;;;;;5047165;28;20032;-76
2020/12/14 02:09:10;;;;;;;9.88;5.35;;;9.00;92.50;;;;;;5044922;28;20060;-75
2020/12/14 02:11:36;;;;;;;11.80;5.97;;;9.10;92.60;;;;;;5048386;28;20120;-75
2020/12/14 02:14:02;;;;;;;9.05;5.30;;;9.00;92.60;;;;;;5047008;28;20395;-75
2020/12/14 02:16:28;;;;;;;9.18;5.95;;;9.00;92.60;;;;;;5047426;28;20566;-75
2020/12/14 02:18:53;;;;;;;10.07;5.40;;;9.10;92.60;;;;;;5045484;28;20120;-75
2020/12/14 02:21:19;;;;;;;9.25;5.60;;;9.10;92.50;;;;;;5047099;28;20021;-75
2020/12/14 02:23:45;;;;;;;12.52;5.68;;;9.10;92.50;;;;;;5049764;28;20047;-75
2020/12/14 02:26:10;;;;;;;12.75;5.63;;;9.10;92.50;;;;;;5062525;28;20517;-75
2020/12/14 02:28:37;;;;;;;8.85;5.22;;;9.10;92.40;;;;;;5047881;28;20460;-76
2020/12/14 02:31:03;;;;;;;13.40;6.20;;;9.10;92.40;;;;;;5059318;28;20025;-78
2020/12/14 02:33:29;;;;;;;11.82;6.45;;;9.10;92.50;;;;;;5065302;28;20037;-75
2020/12/14 02:35:54;;;;;;;12.35;6.10;;;9.10;92.40;;;;;;5055032;28;20067;-75
2020/12/14 02:38:21;;;;;;;9.93;5.45;;;9.10;92.40;;;;;;5050733;28;20418;-75
2020/12/14 02:40:47;;;;;;;11.27;6.05;;;9.10;92.50;;;;;;5039854;28;20541;-75
2020/12/14 02:43:13;;;;;;;14.32;5.97;;;9.10;92.40;;;;;;5051177;28;20042;-76
2020/12/14 02:45:38;;;;;;;12.55;6.18;;;9.10;92.50;;;;;;5044473;28;20365;-75
2020/12/14 02:48:04;;;;;;;11.18;5.40;;;9.20;92.50;;;;;;5049889;28;20034;-75
2020/12/14 02:50:30;;;;;;;9.98;5.15;;;9.10;92.40;;;;;;5066434;28;20041;-75
2020/12/14 02:52:56;;;;;;;11.07;5.75;;;9.20;92.50;;;;;;5049513;28;20037;-75
2020/12/14 02:55:22;;;;;;;11.07;5.70;;;9.20;92.40;;;;;;5046970;28;20116;-77
2020/12/14 02:57:48;;;;;;;10.93;5.95;;;9.20;92.40;;;;;;5047057;28;20067;-75
2020/12/14 03:00:14;;;;;;;13.38;6.15;;;9.20;92.50;;;;;;5040180;28;20064;-75
2020/12/14 03:02:39;;;;;;;13.43;6.68;;;9.10;92.60;;;;;;5044084;28;20056;-75
2020/12/14 03:05:05;;;;;;;12.93;6.30;;;9.10;92.70;;;;;;5037088;28;20064;-75
2020/12/14 03:07:31;;;;;;;11.10;5.85;;;9.10;92.80;;;;;;5048329;28;20373;-75
2020/12/14 03:09:56;;;;;;;11.20;5.90;;;9.10;92.80;;;;;;5050797;28;20063;-75
2020/12/14 03:12:22;;;;;;;11.45;6.18;;;9.10;92.90;;;;;;5066781;28;20505;-77
2020/12/14 03:14:48;;;;;;;13.10;5.75;;;9.10;92.90;;;;;;5048032;28;20391;-75
2020/12/14 03:17:14;;;;;;;11.88;6.35;;;9.10;92.90;;;;;;5044566;28;20453;-75
2020/12/14 03:19:39;;;;;;;8.90;5.50;;;9.10;93.00;;;;;;5048289;28;20450;-75
2020/12/14 03:22:05;;;;;;;12.43;6.30;;;9.10;93.00;;;;;;5045963;28;20033;-74
2020/12/14 03:24:30;;;;;;;10.45;5.45;;;9.10;93.00;;;;;;5047062;28;20448;-75
2020/12/14 03:26:56;;;;;;;9.77;5.93;;;9.10;93.10;;;;;;5045026;28;20083;-75
2020/12/14 03:29:22;;;;;;;12.43;6.53;;;9.10;93.10;;;;;;5057192;28;20480;-74
2020/12/14 03:31:47;;;;;;;13.65;6.35;;;9.20;93.10;;;;;;5057602;28;20513;-74
2020/12/14 03:34:13;;;;;;;11.70;6.03;;;9.20;93.00;;;;;;5052754;28;20040;-76
2020/12/14 03:36:39;;;;;;;11.95;6.13;;;9.20;93.00;;;;;;5047521;28;20060;-75
2020/12/14 03:39:07;;;;;;;11.57;6.05;;;9.20;93.00;;;;;;5057896;28;20024;-75
2020/12/14 03:41:33;;;;;;;11.63;5.90;;;9.20;93.00;;;;;;5057544;28;20471;-75
2020/12/14 03:43:58;;;;;;;11.55;6.45;;;9.20;93.00;;;;;;5051793;28;20044;-75
2020/12/14 03:46:27;;;;;;;12.32;5.95;;;9.20;93.00;;;;;;5051005;28;20026;-75
2020/12/14 03:48:53;;;;;;;12.82;6.05;;;9.20;93.10;;;;;;5044087;28;20163;-76
2020/12/14 03:51:20;;;;;;;12.98;6.80;;;9.20;93.10;;;;;;5048433;28;20345;-77
2020/12/14 03:53:45;;;;;;;11.18;6.20;;;9.20;93.20;;;;;;5046915;28;20377;-75
2020/12/14 03:56:11;;;;;;;12.60;6.68;;;9.20;93.20;;;;;;5047335;28;20033;-75
2020/12/14 03:58:37;;;;;;;11.43;6.22;;;9.20;93.20;;;;;;5042090;28;20038;-78
2020/12/14 04:01:03;;;;;;;12.80;6.55;;;9.20;93.30;;;;;;5052207;28;20032;-75
2020/12/14 04:03:29;;;;;;;10.77;6.05;;;9.20;93.30;;;;;;5051647;28;20036;-75
2020/12/14 04:05:55;;;;;;;13.40;6.65;;;9.20;93.30;;;;;;5045816;28;20384;-75
2020/12/14 04:08:20;;;;;;;11.85;6.80;;;9.20;93.40;;;;;;5046918;28;20123;-75
2020/12/14 04:10:46;;;;;;;11.93;6.18;;;9.20;93.50;;;;;;5051511;28;20048;-76
2020/12/14 04:13:12;;;;;;;10.68;6.55;;;9.20;93.40;;;;;;5048205;28;20033;-76
2020/12/14 04:15:38;;;;;;;12.38;6.35;;;9.20;93.50;;;;;;5046989;28;20025;-75
2020/12/14 04:18:04;;;;;;;10.63;6.88;;;9.20;93.60;;;;;;5035773;28;20446;-75
2020/12/14 04:20:30;;;;;;;12.07;7.07;;;9.20;93.60;;;;;;5039419;28;20041;-75
2020/12/14 04:22:55;;;;;;;14.95;7.32;;;9.20;93.60;;;;;;5044892;28;20124;-76
2020/12/14 04:25:21;;;;;;;12.73;6.68;;;9.30;93.50;;;;;;5043399;28;20183;-75
2020/12/14 04:27:47;;;;;;;11.40;7.28;;;9.30;93.50;;;;;;5047488;28;20033;-76
2020/12/14 04:30:13;;;;;;;13.57;7.10;;;9.30;93.50;;;;;;5043370;28;20472;-75
2020/12/14 04:32:39;;;;;;;13.40;7.13;;;9.30;93.50;;;;;;5046279;28;20102;-75
2020/12/14 04:35:05;;;;;;;14.85;6.82;;;9.30;93.50;;;;;;5051808;28;20439;-79
2020/12/14 04:37:31;;;;;;;12.23;6.35;;;9.30;93.50;;;;;;5045774;28;20033;-75
2020/12/14 04:39:56;;;;;;;14.27;6.53;;;9.30;93.50;;;;;;5043228;28;20506;-76
2020/12/14 04:42:22;;;;;;;17.48;6.85;;;9.30;93.50;;;;;;5042504;28;20037;-75
2020/12/14 04:44:52;;;;;;;9.40;5.88;;;9.30;93.40;;;;;;5060942;28;20056;-76
2020/12/14 04:47:18;;;;;;;12.02;6.50;;;9.40;93.40;;;;;;5066298;28;20035;-75
2020/12/14 04:49:43;;;;;;;12.70;6.25;;;9.40;93.40;;;;;;5060298;28;20033;-77
2020/12/14 04:52:11;;;;;;;10.25;5.68;;;9.40;93.30;;;;;;5058178;28;20033;-75
2020/12/14 04:54:37;;;;;;;11.05;5.60;;;9.40;93.30;;;;;;5056648;28;20037;-75
2020/12/14 04:57:08;;;;;;;9.60;5.82;;;9.50;93.10;;;;;;5046722;28;20037;-77
2020/12/14 04:59:35;;;;;;;10.75;5.63;;;9.60;93.10;;;;;;5043916;28;20028;-76
2020/12/14 05:02:07;;;;;;;11.90;5.30;;;9.50;93.10;;;;;;5047821;28;20108;-77
2020/12/14 05:04:35;;;;;;;11.05;5.65;;;9.50;93.10;;;;;;5038200;28;20029;-75
2020/12/14 05:07:01;;;;;;;8.70;5.13;;;9.50;93.10;;;;;;5039767;28;20037;-77
2020/12/14 05:09:27;;;;;;;8.55;4.97;;;9.50;93.30;;;;;;5043097;28;20056;-76
2020/12/14 05:11:53;;;;;;;8.95;5.60;;;9.60;93.20;;;;;;5043502;28;20167;-76
2020/12/14 05:14:21;;;;;;;10.00;5.50;;;9.60;93.20;;;;;;5047585;28;20124;-77
2020/12/14 05:16:48;;;;;;;9.07;5.60;;;9.60;93.30;;;;;;5047642;28;20032;-76
2020/12/14 05:19:28;;;;;;;9.77;4.97;;;9.60;93.40;;;;;;5061443;28;20033;-77
2020/12/14 05:21:58;;;;;;;10.50;5.53;;;9.60;93.40;;;;;;5060594;28;20063;-76
2020/12/14 05:24:27;;;;;;;12.35;6.10;;;9.60;93.40;;;;;;5062584;28;20078;-75
2020/12/14 05:26:53;;;;;;;11.40;5.60;;;9.60;93.40;;;;;;5061471;28;20037;-76
2020/12/14 05:29:27;;;;;;;11.55;5.57;;;9.60;93.50;;;;;;5062540;28;20029;-79
2020/12/14 05:32:22;;;;;;;11.03;6.07;;;9.60;93.40;;;;;;5064798;28;20529;-78
2020/12/14 05:34:48;;;;;;;9.37;5.50;;;9.60;93.40;;;;;;5045534;28;20074;-76
2020/12/14 05:37:15;;;;;;;8.75;5.10;;;9.60;93.40;;;;;;5062902;28;20041;-76
2020/12/14 05:39:42;;;;;;;9.85;5.32;;;9.60;93.40;;;;;;5064177;28;20041;-75
2020/12/14 05:42:21;;;;;;;9.85;5.88;;;9.60;93.50;;;;;;5062199;28;20527;-75
2020/12/14 05:44:50;;;;;;;8.57;5.18;;;9.60;93.40;;;;;;5064229;28;20123;-79
2020/12/14 05:47:31;;;;;;;9.38;5.32;;;9.60;93.40;;;;;;5064290;28;20094;-76
2020/12/14 05:50:01;;;;;;;8.40;4.30;;;9.60;93.40;;;;;;5061652;28;20453;-78
2020/12/14 05:52:34;;;;;;;8.20;4.70;;;9.60;93.40;;;;;;5054217;28;20036;-75
2020/12/14 05:55:01;;;;;;;8.88;5.10;;;9.60;93.40;;;;;;5061912;28;20036;-76
2020/12/14 05:57:35;;;;;;;9.00;4.72;;;9.70;93.40;;;;;;5061945;28;20175;-76
2020/12/14 06:00:10;;;;;;;9.85;5.63;;;9.70;93.40;;;;;;5047016;28;20119;-76
2020/12/14 06:02:36;;;;;;;8.15;5.05;;;9.60;93.40;;;;;;5050742;28;20029;-76
2020/12/14 06:05:05;;;;;;;9.02;5.20;;;9.70;93.40;;;;;;5053401;28;20041;-77
2020/12/14 06:07:32;;;;;;;8.02;4.78;;;9.70;93.40;;;;;;5052252;28;20029;-76
2020/12/14 06:10:14;;;;;;;9.20;5.63;;;9.60;93.40;;;;;;5053645;28;20308;-75
2020/12/14 06:12:42;;;;;;;10.27;5.35;;;9.70;93.40;;;;;;5060765;28;20487;-75
2020/12/14 06:15:16;;;;;;;8.68;5.40;;;9.70;93.40;;;;;;5045313;28;20079;-76
2020/12/14 06:17:42;;;;;;;8.40;5.17;;;9.70;93.40;;;;;;5051168;28;20041;-77
2020/12/14 06:20:16;;;;;;;9.82;5.78;;;9.70;93.40;;;;;;5047696;28;20626;-76
2020/12/14 06:23:00;;;;;;;10.15;5.95;;;9.70;93.30;;;;;;5047214;28;20041;-75
2020/12/14 06:25:25;;;;;;;9.32;5.38;;;9.70;93.30;;;;;;5058080;28;20041;-77
2020/12/14 06:27:51;;;;;;;9.70;5.40;;;9.70;93.20;;;;;;5065182;28;20040;-76
2020/12/14 06:30:33;;;;;;;8.10;5.53;;;9.70;93.20;;;;;;5067100;28;20032;-75
2020/12/14 06:33:04;;;;;;;7.90;5.82;;;9.70;93.40;;;;;;5046704;28;20079;-76
2020/12/14 06:35:49;;;;;;;10.68;6.25;;;9.70;93.50;;;;;;5059499;28;20036;-76
2020/12/14 06:38:38;;;;;;;10.52;5.57;;;9.80;93.40;;;;;;5067439;28;20066;-75
2020/12/14 06:41:20;;;;;;;10.20;6.32;;;9.80;93.40;;;;;;5067050;28;20489;-75
2020/12/14 06:43:48;;;;;;;9.57;6.28;;;9.80;93.40;;;;;;5051627;28;20473;-75
2020/12/14 06:46:14;;;;;;;9.85;6.35;;;9.80;93.40;;;;;;5057626;28;20082;-79
2020/12/14 06:48:41;;;;;;;10.50;5.63;;;9.80;93.50;;;;;;5045623;28;20116;-76
2020/12/14 06:51:11;;;;;;;11.10;5.35;;;9.80;93.40;;;;;;5049050;28;20033;-76
2020/12/14 06:53:43;;;;;;;9.82;4.78;;;9.80;93.30;;;;;;5053363;28;20140;-76
2020/12/14 06:56:10;;;;;;;10.07;5.35;;;9.90;93.30;;;;;;5048847;28;20036;-75
2020/12/14 06:58:40;;;;;;;9.73;5.05;;;9.90;93.20;;;;;;5047475;28;20446;-77
2020/12/14 07:01:34;;;;;;;7.68;4.63;;;9.90;93.20;;;;;;5046788;28;20029;-76
2020/12/14 07:04:05;;;;;;;8.52;4.55;;;10.00;93.10;;;;;;5047291;28;20037;-74
2020/12/14 07:06:31;;;;;;;7.15;4.30;;;10.10;93.00;;;;;;5065017;28;20123;-75
2020/12/14 07:08:57;;;;;;;7.57;4.65;;;10.10;92.90;;;;;;5053339;28;20114;-76
2020/12/14 07:11:24;;;;;;;8.00;4.25;;;10.10;92.90;;;;;;5045622;28;20033;-80
2020/12/14 07:13:51;;;;;;;9.30;4.10;;;10.10;92.90;;;;;;5048576;28;20035;-77
2020/12/14 07:16:18;;;;;;;9.60;4.32;;;10.10;92.80;;;;;;5042580;28;20541;-74
2020/12/14 07:18:46;;;;;;;7.75;4.28;;;10.10;92.80;;;;;;5045633;28;20112;-76
2020/12/14 07:21:16;;;;;;;9.45;3.90;;;10.20;92.70;;;;;;5045701;28;20135;-73
2020/12/14 07:23:44;;;;;;;7.75;4.00;;;10.20;92.50;;;;;;5045928;28;20581;-73
2020/12/14 07:26:14;;;;;;;7.45;3.83;;;10.20;92.50;;;;;;5044123;28;20037;-73
2020/12/14 07:28:53;;;;;;;6.85;3.70;;;10.20;92.50;;;;;;5044501;28;20029;-73
2020/12/14 07:31:21;;;;;;;7.22;3.47;;;10.20;92.40;;;;;;5044263;28;20033;-75
2020/12/14 07:33:57;;;;;;;8.98;3.60;;;10.30;92.30;;;;;;5046191;28;20029;-78
2020/12/14 07:36:25;;;;;;;5.78;3.45;;;10.30;92.20;;;;;;5045542;28;20063;-73
2020/12/14 07:38:56;;;;;;;7.22;3.67;;;10.30;92.10;;;;;;5040439;28;20426;-73
2020/12/14 07:41:23;;;;;;;6.25;3.17;;;10.40;92.00;;;;;;5045687;28;20151;-79
2020/12/14 07:43:48;;;;;;;8.43;3.25;;;10.30;91.90;;;;;;5047317;28;20064;-74
2020/12/14 07:46:26;;;;;;;9.00;3.60;;;10.30;91.90;;;;;;5046047;28;20036;-74
2020/12/14 07:49:08;;;;;;;7.13;3.78;;;10.30;91.90;;;;;;5043696;28;20078;-73
2020/12/14 07:51:39;;;;;;;7.28;3.95;;;10.30;91.80;;;;;;5044971;28;20033;-72
2020/12/14 07:54:16;;;;;;;7.55;3.72;;;10.30;91.70;;;;;;5045747;28;20491;-78
2020/12/14 07:57:06;;;;;;;8.18;3.70;;;10.30;91.80;;;;;;5051571;28;20044;-72
2020/12/14 07:59:32;;;;;;;9.82;3.40;;;10.20;91.80;;;;;;5065953;28;20259;-72
2020/12/14 08:01:57;;;;;;;7.68;3.60;;;10.20;91.90;;;;;;5066142;28;20035;-74
2020/12/14 08:04:28;;;;;;;7.05;3.38;;;10.10;91.90;;;;;;5065257;28;20089;-78
2020/12/14 08:06:55;;;;;;;7.25;3.50;;;10.10;91.90;;;;;;5068249;28;20090;-74
2020/12/14 08:09:27;;;;;;;6.82;3.35;;;10.10;91.90;;;;;;5066051;28;20395;-74
2020/12/14 08:11:53;;;;;;;6.45;3.13;;;10.10;91.90;;;;;;5070261;28;20474;-74
2020/12/14 08:14:19;;;;;;;7.57;3.45;;;10.10;91.90;;;;;;5064053;28;20039;-74
2020/12/14 08:16:46;;;;;;;8.73;3.70;;;10.10;92.00;;;;;;5063924;28;20025;-74
2020/12/14 08:19:20;;;;;;;7.35;4.18;;;10.10;91.90;;;;;;5065202;28;20104;-74
2020/12/14 08:22:05;;;;;;;11.20;6.07;;;10.10;92.00;;;;;;5065418;28;20027;-74
2020/12/14 08:24:31;;;;;;;9.65;4.55;;;10.10;91.90;;;;;;5065759;28;20043;-74
2020/12/14 08:27:09;;;;;;;14.93;6.38;;;10.00;91.80;;;;;;5063657;28;20483;-77
2020/12/14 08:29:36;;;;;;;9.48;5.20;;;10.10;91.90;;;;;;5066750;28;20498;-75
2020/12/14 08:32:02;;;;;;;11.20;7.13;;;10.10;92.00;;;;;;5066832;28;20037;-77
2020/12/14 08:34:34;;;;;;;9.90;5.45;;;10.10;92.00;;;;;;5067381;28;20044;-75
2020/12/14 08:37:00;;;;;;;8.90;5.20;;;10.10;92.00;;;;;;5060615;28;20093;-74
2020/12/14 08:39:26;;;;;;;11.80;6.47;;;10.10;92.00;;;;;;5061761;28;20375;-74
2020/12/14 08:42:06;;;;;;;8.10;5.47;;;10.20;92.00;;;;;;5067519;28;20021;-75
2020/12/14 08:44:31;;;;;;;10.05;5.35;;;10.20;91.70;;;;;;5063323;28;20043;-74
2020/12/14 08:46:58;;;;;;;9.73;4.50;;;10.30;91.60;;;;;;5063694;28;20024;-74
2020/12/14 08:49:23;;;;;;;7.47;4.03;;;10.40;91.40;;;;;;5061177;28;20033;-75
2020/12/14 08:51:49;;;;;;;7.28;4.43;;;10.30;91.20;;;;;;5066627;28;20135;-75
2020/12/14 08:54:17;;;;;;;6.97;4.63;;;10.40;91.20;;;;;;5063588;28;20141;-74
2020/12/14 08:56:44;;;;;;;6.65;4.28;;;10.40;91.10;;;;;;5063300;28;20367;-78
2020/12/14 08:59:17;;;;;;;7.68;3.70;;;10.30;91.10;;;;;;5066001;28;20025;-75
2020/12/14 09:02:02;;;;;;;7.72;3.80;;;10.30;91.20;;;;;;5060900;28;20056;-74
2020/12/14 09:04:30;;;;;;;8.82;4.00;;;10.30;91.30;;;;;;5063566;28;20129;-80
2020/12/14 09:06:56;;;;;;;8.82;3.97;;;10.40;91.20;;;;;;5065793;28;20035;-76
2020/12/14 09:09:35;;;;;;;6.63;3.83;;;10.50;91.00;;;;;;5065108;28;20024;-77
2020/12/14 09:12:08;;;;;;;11.02;4.32;;;10.50;90.90;;;;;;5062041;28;20403;-73
2020/12/14 09:14:33;;;;;;;8.57;4.95;;;10.50;90.80;;;;;;5062658;28;20496;-74
2020/12/14 09:17:01;;;;;;;7.40;3.60;;;10.50;90.80;;;;;;5065376;28;20109;-74
2020/12/14 09:19:29;;;;;;;8.57;4.32;;;10.50;90.70;;;;;;5063871;28;20378;-73
2020/12/14 09:21:55;;;;;;;9.07;4.13;;;10.60;90.60;;;;;;5065647;28;20098;-74
2020/12/14 09:24:25;;;;;;;8.63;4.18;;;10.60;90.30;;;;;;5065518;28;20081;-74
2020/12/14 09:26:53;;;;;;;8.85;3.70;;;10.70;90.40;;;;;;5065135;28;20056;-73
2020/12/14 09:29:19;;;;;;;7.00;3.65;;;10.80;90.00;;;;;;5064536;28;20082;-74
2020/12/14 09:31:49;;;;;;;8.57;3.80;;;10.90;89.70;;;;;;5067521;28;20037;-76
2020/12/14 09:34:14;;;;;;;11.20;4.07;;;11.00;89.20;;;;;;5068053;28;20055;-76
2020/12/14 09:36:40;;;;;;;8.20;3.70;;;11.10;88.90;;;;;;5068681;28;20044;-76
2020/12/14 09:39:05;;;;;;;8.10;3.88;;;11.10;88.30;;;;;;5067199;28;20032;-76
2020/12/14 09:41:32;;;;;;;9.18;4.15;;;11.00;88.50;;;;;;5068170;28;20033;-73
2020/12/14 09:43:59;;;;;;;7.07;3.75;;;11.00;89.00;;;;;;5082869;28;20383;-74
2020/12/14 09:46:26;;;;;;;9.35;4.13;;;11.10;88.90;;;;;;5064907;28;20115;-74
2020/12/14 09:48:53;;;;;;;10.43;4.22;;;11.10;88.50;;;;;;5068115;28;20040;-74
2020/12/14 09:51:19;;;;;;;11.65;5.25;;;11.10;88.80;;;;;;5063465;28;20024;-74
2020/12/14 09:53:44;;;;;;;9.77;3.78;;;11.10;88.80;;;;;;5067154;28;20508;-75
2020/12/14 09:56:10;;;;;;;8.73;4.38;;;11.10;88.90;;;;;;5063490;28;20040;-76
2020/12/14 09:58:35;;;;;;;7.88;4.00;;;11.10;89.00;;;;;;5047855;28;20040;-75
2020/12/14 10:01:01;;;;;;;7.78;4.22;;;11.10;88.70;;;;;;5047373;28;20491;-74
2020/12/14 10:03:27;;;;;;;10.30;4.97;;;11.10;88.80;;;;;;5041124;28;20147;-78
2020/12/14 10:05:52;;;;;;;9.40;4.32;;;11.10;88.70;;;;;;5044271;28;20471;-75
2020/12/14 10:08:18;;;;;;;9.25;4.28;;;11.10;88.90;;;;;;5045853;28;20063;-77
2020/12/14 10:10:44;;;;;;;11.55;4.85;;;11.10;88.90;;;;;;5049989;28;20032;-76
2020/12/14 10:13:09;;;;;;;11.18;4.53;;;11.10;88.80;;;;;;5044277;28;20192;-75
2020/12/14 10:15:35;;;;;;;9.55;4.78;;;11.10;88.70;;;;;;5045262;28;20109;-74
2020/12/14 10:18:01;;;;;;;7.25;4.30;;;11.10;88.80;;;;;;5048624;28;20506;-75
2020/12/14 10:20:28;;;;;;;12.73;5.18;;;11.10;88.90;;;;;;5043310;28;20033;-82
2020/12/14 10:22:55;;;;;;;12.48;4.80;;;11.20;88.70;;;;;;5045591;28;20392;-78
2020/12/14 10:25:21;;;;;;;9.95;4.95;;;11.20;88.60;;;;;;5043754;28;20563;-74
2020/12/14 10:27:47;;;;;;;10.05;4.93;;;11.20;88.60;;;;;;5049112;28;20456;-74
2020/12/14 10:30:13;;;;;;;9.85;4.53;;;11.30;88.50;;;;;;5043153;28;20565;-75
2020/12/14 10:32:38;;;;;;;10.70;5.25;;;11.30;88.40;;;;;;5049700;28;20052;-74
2020/12/14 10:35:04;;;;;;;8.57;4.50;;;11.30;88.30;;;;;;5044964;28;20032;-76
2020/12/14 10:37:29;;;;;;;9.85;5.38;;;11.40;88.30;;;;;;5048046;28;20373;-74
2020/12/14 10:39:55;;;;;;;10.52;5.15;;;11.40;88.30;;;;;;5046011;28;20041;-74
2020/12/14 10:42:21;;;;;;;8.93;5.22;;;11.40;88.00;;;;;;5047221;28;20043;-74
2020/12/14 10:44:46;;;;;;;9.90;4.70;;;11.40;87.80;;;;;;5044489;28;20118;-79
2020/12/14 10:47:12;;;;;;;11.75;5.65;;;11.40;87.70;;;;;;5046646;28;20041;-74
2020/12/14 10:49:37;;;;;;;11.70;6.00;;;11.40;88.00;;;;;;5043376;28;20483;-74
2020/12/14 10:52:03;;;;;;;12.65;7.75;;;11.60;87.60;;;;;;5046087;28;20084;-77
2020/12/14 10:54:29;;;;;;;9.20;5.30;;;11.70;87.20;;;;;;5047138;28;20051;-76
2020/12/14 10:56:56;;;;;;;10.85;4.50;;;11.60;87.10;;;;;;5044615;28;20466;-75
2020/12/14 10:59:22;;;;;;;13.95;5.72;;;11.60;87.00;;;;;;5045261;28;20028;-75
2020/12/14 11:01:51;;;;;;;8.65;4.57;;;11.60;86.90;;;;;;5045108;28;20026;-75
2020/12/14 11:04:17;;;;;;;7.95;4.28;;;11.60;87.00;;;;;;5046093;28;20804;-75
2020/12/14 11:06:42;;;;;;;10.90;4.40;;;11.70;86.50;;;;;;5052974;28;20166;-75
2020/12/14 11:09:08;;;;;;;8.65;4.10;;;11.70;86.30;;;;;;5044563;28;20033;-77
2020/12/14 11:11:35;;;;;;;13.20;3.97;;;11.80;86.30;;;;;;5040229;28;20112;-75
2020/12/14 11:14:01;;;;;;;8.82;4.50;;;11.80;86.10;;;;;;5050567;28;20561;-79
2020/12/14 11:16:27;;;;;;;10.85;4.20;;;11.70;86.00;;;;;;5060726;28;20386;-75
2020/12/14 11:18:57;;;;;;;9.85;4.70;;;11.80;86.50;;;;;;5065089;28;20025;-75
2020/12/14 11:21:23;;;;;;;9.40;4.65;;;11.80;86.30;;;;;;5067755;28;20391;-75
2020/12/14 11:23:48;;;;;;;9.27;3.63;;;11.80;86.10;;;;;;5064905;28;20028;-76
2020/12/14 11:26:14;;;;;;;10.00;4.53;;;11.80;86.00;;;;;;5068500;28;20035;-76
2020/12/14 11:28:40;;;;;;;9.50;3.47;;;11.80;86.10;;;;;;5066581;28;20394;-75
2020/12/14 11:31:07;;;;;;;8.55;3.35;;;11.70;86.00;;;;;;5065208;28;20052;-75
2020/12/14 11:33:34;;;;;;;8.88;3.60;;;11.80;86.00;;;;;;5062530;28;20559;-74
2020/12/14 11:36:01;;;;;;;10.88;4.15;;;11.80;86.00;;;;;;5073727;28;20122;-74
2020/12/14 11:38:27;;;;;;;9.98;3.40;;;11.80;86.20;;;;;;5065967;28;20119;-74
2020/12/14 11:40:52;;;;;;;9.57;3.55;;;11.70;86.00;;;;;;5067733;28;20120;-75
2020/12/14 11:43:18;;;;;;;11.45;3.75;;;11.70;86.00;;;;;;5065619;28;20040;-78
2020/12/14 11:45:45;;;;;;;10.07;3.25;;;11.80;86.20;;;;;;5059511;28;20043;-77
2020/12/14 11:48:11;;;;;;;8.30;3.55;;;11.80;86.10;;;;;;5067603;28;20045;-75
2020/12/14 11:50:36;;;;;;;8.15;3.00;;;11.80;86.00;;;;;;5064370;28;20047;-75
2020/12/14 11:53:02;;;;;;;7.97;3.20;;;11.90;86.00;;;;;;5080890;28;20037;-75
2020/12/14 11:55:28;;;;;;;9.02;3.47;;;11.80;85.90;;;;;;5067252;28;20052;-75
2020/12/14 11:57:53;;;;;;;8.60;3.42;;;11.80;86.10;;;;;;5066499;28;20039;-79
2020/12/14 12:00:19;;;;;;;7.97;3.90;;;11.80;85.80;;;;;;5067767;28;20047;-75
2020/12/14 12:02:44;;;;;;;10.73;3.65;;;11.90;86.00;;;;;;5064109;28;20028;-75
2020/12/14 12:05:10;;;;;;;8.23;2.65;;;11.90;85.50;;;;;;5067791;28;20044;-75
2020/12/14 12:07:36;;;;;;;8.20;2.80;;;12.00;85.60;;;;;;5039536;28;20486;-75
2020/12/14 12:10:03;;;;;;;9.73;3.28;;;12.10;85.10;;;;;;5042447;28;20106;-76
2020/12/14 12:12:28;;;;;;;9.20;3.05;;;12.20;84.40;;;;;;5042850;28;20041;-75
2020/12/14 12:14:54;;;;;;;9.05;2.67;;;12.30;83.80;;;;;;5041601;28;20466;-75
2020/12/14 12:17:20;;;;;;;10.35;2.92;;;12.40;83.40;;;;;;5045496;28;20079;-75
2020/12/14 12:19:47;;;;;;;10.75;2.90;;;12.60;83.20;;;;;;5046346;28;20557;-75
2020/12/14 12:22:13;;;;;;;10.68;3.17;;;12.60;82.30;;;;;;5053448;28;20119;-75
2020/12/14 12:24:39;;;;;;;6.65;2.50;;;12.60;82.20;;;;;;5044454;28;20119;-75
2020/12/14 12:27:05;;;;;;;9.30;3.35;;;12.50;82.10;;;;;;5042063;28;20546;-75
2020/12/14 12:29:31;;;;;;;8.95;3.63;;;12.40;82.50;;;;;;5042564;28;20037;-76
2020/12/14 12:31:58;;;;;;;11.70;3.28;;;12.30;82.90;;;;;;5050773;28;20119;-77
2020/12/14 12:34:24;;;;;;;7.85;3.25;;;12.20;83.10;;;;;;5055943;28;20105;-76
2020/12/14 12:36:55;;;;;;;8.15;3.08;;;12.10;83.50;;;;;;5047162;28;20037;-75
2020/12/14 12:39:20;;;;;;;7.25;2.70;;;12.10;83.50;;;;;;5040983;28;20055;-76
2020/12/14 12:41:51;;;;;;;8.90;3.22;;;12.10;83.20;;;;;;5046148;28;20036;-75
2020/12/14 12:44:18;;;;;;;8.13;3.00;;;12.00;83.70;;;;;;5044742;28;20388;-77
2020/12/14 12:46:43;;;;;;;10.75;3.90;;;12.00;83.60;;;;;;5056570;28;20033;-76
2020/12/14 12:49:10;;;;;;;12.00;4.13;;;11.90;83.50;;;;;;5063408;28;20098;-75
2020/12/14 12:51:36;;;;;;;9.20;3.60;;;11.90;83.60;;;;;;5060242;28;20036;-76